Flight Track Log - Related Links

Times and Time Zones

All times are in EDT time to prevent confusion due to time zone crossing. See the CRQ907 flight status page for this flight to view local times or setup timezone preferences in your user account.

Time Position Orientation Groundspeed Altitude Reporting Facility
EDT Latitude Longitude Course Direction KTS MPH feet Rate Location/Type
Sun 11:38:00 AM 52.8818 -78.7696 347° North  Level FlightAware Approximate
Sun 11:39:00 AM 52.9371 -78.7916 347° North  Level FlightAware Approximate
Sun 11:40:00 AM 52.9925 -78.8137 347° North  Level FlightAware Approximate
Sun 11:41:00 AM 53.0491 -78.8223 356° North  Level FlightAware Approximate
Sun 11:42:00 AM 53.1059 -78.8288 356° North  Level FlightAware Approximate
Sun 11:43:00 AM 53.1628 -78.8353 356° North  Level FlightAware Approximate
Sun 11:44:00 AM 53.2196 -78.8419 356° North  Level FlightAware Approximate
Sun 11:45:00 AM 53.2764 -78.8484 356° North  Level FlightAware Approximate
Sun 11:46:00 AM 53.3332 -78.8550 356° North  Level FlightAware Approximate
Sun 11:47:00 AM 53.3900 -78.8616 356° North  Level FlightAware Approximate
Sun 11:48:00 AM 53.4468 -78.8686 355° North  Level FlightAware Approximate
Sun 11:49:00 AM 53.5035 -78.8767 355° North  Level FlightAware Approximate
Sun 11:50:00 AM 53.5603 -78.8833 North  Level FlightAware Approximate
Sun 11:51:00 AM 53.6172 -78.8833 North  Level FlightAware Approximate
Sun 11:52:00 AM 53.6739 -78.8914 353° North  Level FlightAware Approximate
Sun 11:53:00 AM 53.7304 -78.9027 353° North  Level FlightAware Approximate
Sun 11:54:00 AM 53.7870 -78.9141 353° North  Level FlightAware Approximate
Sun 11:55:00 AM 53.8000 -78.9167 353° North  Level FlightAware Approximate
Sun 11:56:00 AM 53.8056 -78.9169 353° North  Level Estimated
Sun 11:57:00 AM 53.8000 -78.9167 353° North  Level FlightAware Approximate
Sun 11:58:00 AM 53.8056 -78.9169 353° North  Level Estimated
Sun 11:59:00 AM 53.8000 -78.9167 353° North  Level FlightAware Approximate
Sun 12:00:00 PM 53.8056 -78.9169 353° North  Level Estimated
Sun 12:01:00 PM 53.8000 -78.9167 353° North  Level FlightAware Approximate
Sun 12:02:00 PM 53.8056 -78.9169 353° North  Level Estimated
Sun 12:03:00 PM 53.8000 -78.9167 353° North  Level FlightAware Approximate
Sun 12:04:00 PM 53.8056 -78.9169 353° North  Level Estimated
Sun 12:05:00 PM 53.8000 -78.9167 353° North  Level FlightAware Approximate
Sun 12:06:00 PM 53.8056 -78.9169 353° North  Level Estimated
Sun 12:07:00 PM 53.8000 -78.9167 353° North  Level FlightAware Approximate
Sun 12:08:00 PM 53.8056 -78.9169 353° North  Level Estimated
Sun 12:09:00 PM 53.8000 -78.9167 353° North  Level FlightAware Approximate
Sun 12:10:00 PM 53.8056 -78.9169 353° North  Level Estimated

Login

Don't have an account? Register now (free) for customized features, flight alerts, and more!